Current Weather Conditions: station LDLC3

sailwx.info

Wind from 270 at 22 knots gusting 29

Air temperature 6.1° C
Dewpoint -4.7° C

Last reported at 2019-Dec-15 23:00 UTC.
Time now 2019-Dec-15 23:35 UTC

Location: N 41°19' W 072°05'.
View on Google Maps.

See reports from other nearby stations

  
Tides and Currents Weather Stations Pressure Air Temp Water Temp Dewpoint Dewpoint Depression Visibility Wind Speed Wind Dir Waves Ship Positions
date/time (UTC)wind fromknots sea level pressurealtimeterstation pressurevisibilityair tempwater tempwave heightnotes
2019-Dec-15 23:00 270 22 gusting 29 6.1
2019-Dec-15 22:45 270 26 gusting 29 6.2
2019-Dec-15 22:30 270 26 gusting 36 6.4
2019-Dec-15 22:15 260 25 gusting 28 6.7
2019-Dec-15 22:00 280 22 gusting 27 6.7
2019-Dec-15 21:45 270 20 gusting 27 6.7
2019-Dec-15 21:30 280 19 gusting 26 6.7
2019-Dec-15 21:15 280 27 gusting 34 6.9
2019-Dec-15 21:00 280 21 gusting 38 7.2
2019-Dec-15 20:45 270 22 gusting 28 7.3
2019-Dec-15 20:30 280 20 gusting 26 7.3
2019-Dec-15 20:15 290 19 gusting 27 7.2
2019-Dec-15 20:00 290 21 gusting 27 7.4
2019-Dec-15 19:45 290 21 gusting 31 7.5
2019-Dec-15 19:30 280 19 gusting 22 7.5
2019-Dec-15 19:15 270 24 gusting 29 7.6
2019-Dec-15 19:00 280 21 gusting 29 7.4
2019-Dec-15 18:45 290 22 gusting 29 7.3
2019-Dec-15 18:30 280 19 gusting 21 7.4
2019-Dec-15 18:15 290 22 gusting 33 7.2
2019-Dec-15 18:00 280 21 gusting 27 7.4
2019-Dec-15 17:45 280 22 gusting 29 7.5
2019-Dec-15 17:30 290 28 gusting 38 7.7
2019-Dec-15 17:15 280 27 gusting 33 7.8
2019-Dec-15 17:00 290 26 gusting 34 8.0
2019-Dec-15 16:45 260 31 gusting 38 7.7
2019-Dec-15 16:30 250 29 gusting 35 7.7
2019-Dec-15 16:15 260 31 gusting 35 7.5
2019-Dec-15 16:00 250 29 gusting 35 7.5
2019-Dec-15 15:45 250 32 gusting 36 7.4
2019-Dec-15 15:30 260 31 gusting 34 7.4
2019-Dec-15 15:15 280 20 gusting 28 7.8
2019-Dec-15 15:00 270 24 gusting 33 7.6
2019-Dec-15 14:45 270 22 gusting 28 7.5
2019-Dec-15 14:30 270 24 gusting 31 7.6
2019-Dec-15 14:15 270 24 gusting 29 7.5
2019-Dec-15 14:00 270 24 gusting 34 7.4
2019-Dec-15 13:45 270 27 gusting 34 7.3
2019-Dec-15 13:30 270 22 gusting 27 7.1
2019-Dec-15 13:15 270 24 gusting 28 6.9
2019-Dec-15 13:00 270 24 gusting 29 6.8
2019-Dec-15 12:45 270 22 gusting 28 6.7
2019-Dec-15 12:30 270 20 gusting 26 6.6
2019-Dec-15 12:15 270 21 gusting 27 6.7
2019-Dec-15 12:00 270 26 gusting 31 6.8
2019-Dec-15 11:45 270 25 gusting 29 6.8
2019-Dec-15 11:30 260 25 gusting 29 6.8
2019-Dec-15 11:15 270 21 gusting 27 6.8
2019-Dec-15 11:00 270 25 gusting 27 6.9
2019-Dec-15 10:45 270 26 gusting 34 6.8
2019-Dec-15 10:30 270 21 gusting 27 6.8
2019-Dec-15 10:15 270 20 gusting 26 6.6
2019-Dec-15 10:00 280 21 gusting 26 6.6
2019-Dec-15 09:45 270 20 gusting 25 6.7
2019-Dec-15 09:30 270 26 gusting 29 6.8
2019-Dec-15 09:15 260 26 gusting 29 6.8
2019-Dec-15 09:00 260 22 gusting 29 6.7
2019-Dec-15 08:45 270 25 gusting 28 6.7
2019-Dec-15 08:30 260 28 gusting 34 6.7
2019-Dec-15 08:15 260 27 gusting 34 6.8
2019-Dec-15 08:00 260 27 gusting 31 6.7
2019-Dec-15 07:45 260 27 gusting 31 6.6
2019-Dec-15 07:30 270 26 gusting 28 6.6
2019-Dec-15 07:15 270 22 gusting 28 6.5
2019-Dec-15 07:00 270 24 gusting 32 6.6
2019-Dec-15 06:45 270 24 gusting 32 6.7
2019-Dec-15 06:30 270 25 gusting 34 6.9
2019-Dec-15 06:15 270 28 gusting 35 7.1
2019-Dec-15 06:00 270 26 gusting 31 7.4
2019-Dec-15 05:45 260 35 gusting 45 7.8
2019-Dec-15 05:30 250 35 gusting 44 8.2
2019-Dec-15 05:15 240 32 gusting 39 8.8
2019-Dec-15 05:00 250 33 gusting 38 8.9
2019-Dec-14 23:45 220 20 gusting 26 11.4
2019-Dec-14 23:30 220 20 gusting 22 11.3
2019-Dec-14 23:15 220 18 gusting 22 11.4
2019-Dec-14 23:00 220 19 gusting 20 12.1
2019-Dec-14 22:45 220 15 gusting 18 11.8
2019-Dec-14 22:30 210 17 gusting 18 12.1
2019-Dec-14 22:15 200 18 gusting 20 12.4
2019-Dec-14 22:00 200 14 gusting 18 12.6
2019-Dec-14 21:45 200 12 gusting 13 12.2
2019-Dec-14 21:30 180 12 gusting 13 11.9
2019-Dec-14 21:15 180 13 gusting 14 12.1
2019-Dec-14 21:00 180 14 gusting 15 11.8
2019-Dec-14 20:45 180 14 gusting 17 11.6
2019-Dec-14 20:30 170 14 gusting 17 11.6
2019-Dec-14 20:15 170 9 gusting 12 11.4
2019-Dec-14 20:00 170 11 gusting 12 11.6
2019-Dec-14 19:45 170 12 gusting 13 11.5
2019-Dec-14 19:30 170 12 gusting 13 11.3
2019-Dec-14 19:15 170 11 gusting 12 11.7
2019-Dec-14 19:00 170 13 gusting 15 12.2
2019-Dec-14 18:45 150 12 gusting 13 11.7
2019-Dec-14 18:30 160 12 gusting 13 12.1
2019-Dec-14 18:15 170 9 gusting 11 11.7
2019-Dec-14 18:00 170 13 gusting 13 11.4
2019-Dec-14 17:45 170 7 gusting 8 10.8
2019-Dec-14 17:30 160 5 gusting 6 10.7
2019-Dec-14 17:15 170 4 gusting 5 11.4
2019-Dec-14 17:00 190 6 gusting 6 11.4
2019-Dec-14 16:45 210 4 gusting 5 11.4
2019-Dec-14 16:30 220 6 gusting 6 11.8
2019-Dec-14 16:15 210 6 gusting 8 11.1
2019-Dec-14 16:00 200 8 gusting 9 11.4
2019-Dec-14 15:45 11.6
2019-Dec-14 15:30 10.9
2019-Dec-14 15:15 11.1
2019-Dec-14 15:00 11.2
2019-Dec-14 14:45 190 4 gusting 6 11.4
2019-Dec-14 14:30 160 0 gusting 6 11.6
2019-Dec-14 14:15 150 11 gusting 12 12.1
2019-Dec-14 14:00 140 13 gusting 13 12.3
2019-Dec-14 13:45 140 13 gusting 14 12.0
2019-Dec-14 13:30 140 15 gusting 17 12.0
2019-Dec-14 13:15 150 17 gusting 18 12.0
2019-Dec-14 13:00 140 18 gusting 20 11.9
2019-Dec-14 12:45 140 18 gusting 20 12.0
2019-Dec-14 12:15 140 20 gusting 21 12.0
2019-Dec-14 12:00 140 20 gusting 21 11.9
2019-Dec-14 11:45 130 21 gusting 25 11.9
2019-Dec-14 11:30 130 20 gusting 22 12.0
2019-Dec-14 11:15 130 21 gusting 26 12.1
2019-Dec-14 11:00 130 20 gusting 25 12.0
2019-Dec-14 10:45 130 21 gusting 27 12.0
2019-Dec-14 10:30 130 20 gusting 24 11.9
2019-Dec-14 10:15 130 20 gusting 24 11.9
2019-Dec-14 10:00 130 25 gusting 27 12.0
2019-Dec-14 09:45 130 22 gusting 27 11.8
2019-Dec-14 09:30 130 26 gusting 27 11.9
2019-Dec-14 09:15 130 25 gusting 29 11.8
2019-Dec-14 09:00 130 25 gusting 32 11.9
2019-Dec-14 08:45 130 27 gusting 32 11.6
2019-Dec-14 08:30 120 27 gusting 32 11.6
2019-Dec-14 08:15 120 27 gusting 32 11.4
2019-Dec-14 08:00 120 29 gusting 34 11.4
2019-Dec-14 07:45 120 29 gusting 35 11.3
2019-Dec-14 07:30 120 27 gusting 34 11.5
2019-Dec-14 07:15 090 22 gusting 27 11.0
2019-Dec-14 07:00 100 25 gusting 31 11.1
2019-Dec-14 06:45 090 24 gusting 27 10.6
2019-Dec-14 06:30 080 19 gusting 21 10.6
2019-Dec-14 06:15 100 24 gusting 27 10.9
2019-Dec-14 06:00 090 22 gusting 27 10.5
2019-Dec-14 05:45 080 21 gusting 26 10.5
2019-Dec-14 05:30 090 26 gusting 29 10.2
2019-Dec-14 05:15 090 21 gusting 26 10.2
2019-Dec-14 05:00 080 22 gusting 27 10.4
2019-Dec-13 23:45 080 15 gusting 18 8.7
2019-Dec-13 23:30 080 14 gusting 17 8.6
2019-Dec-13 23:15 080 13 gusting 15 8.4
2019-Dec-13 23:00 080 13 gusting 17 8.4